KGLW

Glasgow Municipal Airport

Glasgow, Kentucky, USA
METAR KGLW 201950Z AUTO 17011G15KT 10SM BKN027 BKN034 29/21 A2992 RMK AO2 T02890213
Observed Flight Rules
Aug-20 @ 19:50 UTC (40 minutes ago) Marginal Visual Flight Rules
Wind Visibility Clouds
170° at 11 knots
 Gusting to 15 knots
10 miles
  • Broken at 2,700' AGL
  • Broken at 3,400' AGL
Temperatures Readings
Current 29°C / 84°F
Dewpoint 21°C / 70°F
Humidity 62%
Altimeter 29.92" Hg
Pressure 1013 hPa
Elevation 218
METAR KGLW 201950Z AUTO 17011G15KT 10SM BKN027 BKN034 29/21 A2992 RMK AO2 T02890213
Observed Flight Rules
Aug-20 @ 19:50 UTC
(40 minutes ago)
MVFR
Wind Visibility
170° at 11 knots
 Gusting to 15 knots
10 miles
Clouds
  • Broken at 2,700' AGL
  • Broken at 3,400' AGL
Temperature Dewpoint
29°C / 84°F 21°C / 70°F
Humidity Altimeter Pressure
62% 29.92" Hg 1013 hPa